sensor_id;sensor_type;location;lat;lon;timestamp;P1;durP1;ratioP1;P2;durP2;ratioP2
59930;SDS011;45790;51.538;6.736;2022-10-16T00:01:07;2.25;;;1.30;;
59930;SDS011;45790;51.538;6.736;2022-10-16T00:03:35;3.17;;;1.20;;
59930;SDS011;45790;51.538;6.736;2022-10-16T00:06:01;3.08;;;1.40;;
59930;SDS011;45790;51.538;6.736;2022-10-16T00:08:27;2.05;;;1.20;;
59930;SDS011;45790;51.538;6.736;2022-10-16T00:10:52;2.67;;;1.30;;
59930;SDS011;45790;51.538;6.736;2022-10-16T00:13:18;2.08;;;1.08;;
59930;SDS011;45790;51.538;6.736;2022-10-16T00:15:45;2.13;;;1.20;;
59930;SDS011;45790;51.538;6.736;2022-10-16T00:18:11;3.88;;;1.40;;
59930;SDS011;45790;51.538;6.736;2022-10-16T00:20:37;1.38;;;1.00;;
59930;SDS011;45790;51.538;6.736;2022-10-16T00:23:03;3.03;;;1.15;;
59930;SDS011;45790;51.538;6.736;2022-10-16T00:25:29;2.45;;;1.00;;
59930;SDS011;45790;51.538;6.736;2022-10-16T00:27:57;3.15;;;1.10;;
59930;SDS011;45790;51.538;6.736;2022-10-16T00:30:22;2.95;;;1.15;;
59930;SDS011;45790;51.538;6.736;2022-10-16T00:32:48;2.30;;;1.20;;
59930;SDS011;45790;51.538;6.736;2022-10-16T00:35:13;2.72;;;1.20;;
59930;SDS011;45790;51.538;6.736;2022-10-16T00:37:39;2.78;;;1.10;;
59930;SDS011;45790;51.538;6.736;2022-10-16T00:40:04;2.75;;;1.00;;
59930;SDS011;45790;51.538;6.736;2022-10-16T00:42:30;1.05;;;0.80;;
59930;SDS011;45790;51.538;6.736;2022-10-16T00:44:57;2.28;;;1.20;;
59930;SDS011;45790;51.538;6.736;2022-10-16T00:47:27;2.35;;;1.10;;
59930;SDS011;45790;51.538;6.736;2022-10-16T00:49:58;2.55;;;1.10;;
59930;SDS011;45790;51.538;6.736;2022-10-16T00:52:47;3.38;;;1.42;;
59930;SDS011;45790;51.538;6.736;2022-10-16T00:55:14;1.75;;;1.17;;
59930;SDS011;45790;51.538;6.736;2022-10-16T00:57:39;3.25;;;1.17;;
59930;SDS011;45790;51.538;6.736;2022-10-16T01:00:06;1.88;;;1.10;;
59930;SDS011;45790;51.538;6.736;2022-10-16T01:02:33;1.88;;;1.10;;
59930;SDS011;45790;51.538;6.736;2022-10-16T01:04:59;3.53;;;1.20;;
59930;SDS011;45790;51.538;6.736;2022-10-16T01:15:49;2.50;;;1.00;;
59930;SDS011;45790;51.538;6.736;2022-10-16T01:21:01;1.95;;;1.20;;
59930;SDS011;45790;51.538;6.736;2022-10-16T01:23:36;3.08;;;1.42;;
59930;SDS011;45790;51.538;6.736;2022-10-16T01:29:09;4.18;;;1.30;;
59930;SDS011;45790;51.538;6.736;2022-10-16T01:31:43;2.60;;;1.30;;
59930;SDS011;45790;51.538;6.736;2022-10-16T01:34:18;4.18;;;1.20;;
59930;SDS011;45790;51.538;6.736;2022-10-16T01:36:56;2.08;;;1.10;;
59930;SDS011;45790;51.538;6.736;2022-10-16T01:39:29;4.40;;;1.10;;
59930;SDS011;45790;51.538;6.736;2022-10-16T01:44:39;2.55;;;1.25;;
59930;SDS011;45790;51.538;6.736;2022-10-16T01:47:04;2.20;;;1.23;;
59930;SDS011;45790;51.538;6.736;2022-10-16T01:49:31;3.15;;;1.10;;
59930;SDS011;45790;51.538;6.736;2022-10-16T01:51:59;4.00;;;1.15;;
59930;SDS011;45790;51.538;6.736;2022-10-16T01:54:25;2.05;;;1.15;;
59930;SDS011;45790;51.538;6.736;2022-10-16T01:56:53;3.42;;;1.30;;
59930;SDS011;45790;51.538;6.736;2022-10-16T01:59:20;2.60;;;1.15;;
59930;SDS011;45790;51.538;6.736;2022-10-16T02:01:50;2.42;;;1.20;;
59930;SDS011;45790;51.538;6.736;2022-10-16T02:04:21;1.50;;;1.00;;
59930;SDS011;45790;51.538;6.736;2022-10-16T02:06:49;2.28;;;1.30;;
59930;SDS011;45790;51.538;6.736;2022-10-16T02:09:18;2.75;;;1.35;;
59930;SDS011;45790;51.538;6.736;2022-10-16T02:11:43;2.28;;;1.17;;
59930;SDS011;45790;51.538;6.736;2022-10-16T02:14:09;2.97;;;1.20;;
59930;SDS011;45790;51.538;6.736;2022-10-16T02:16:35;2.88;;;1.35;;
59930;SDS011;45790;51.538;6.736;2022-10-16T02:19:02;2.72;;;1.33;;
59930;SDS011;45790;51.538;6.736;2022-10-16T02:21:29;2.65;;;1.30;;
59930;SDS011;45790;51.538;6.736;2022-10-16T02:27:19;4.22;;;1.55;;
59930;SDS011;45790;51.538;6.736;2022-10-16T02:29:47;3.28;;;1.50;;
59930;SDS011;45790;51.538;6.736;2022-10-16T02:32:17;5.07;;;1.80;;
59930;SDS011;45790;51.538;6.736;2022-10-16T02:37:12;5.72;;;1.90;;
59930;SDS011;45790;51.538;6.736;2022-10-16T02:39:37;4.18;;;1.75;;
59930;SDS011;45790;51.538;6.736;2022-10-16T02:42:03;4.60;;;1.90;;
59930;SDS011;45790;51.538;6.736;2022-10-16T02:44:29;3.40;;;1.60;;
59930;SDS011;45790;51.538;6.736;2022-10-16T02:46:54;3.70;;;1.70;;
59930;SDS011;45790;51.538;6.736;2022-10-16T02:49:20;4.07;;;1.88;;
59930;SDS011;45790;51.538;6.736;2022-10-16T02:51:45;5.47;;;2.15;;
59930;SDS011;45790;51.538;6.736;2022-10-16T02:57:33;3.92;;;2.10;;
59930;SDS011;45790;51.538;6.736;2022-10-16T02:59:58;5.43;;;2.17;;
59930;SDS011;45790;51.538;6.736;2022-10-16T03:02:23;5.00;;;2.20;;
59930;SDS011;45790;51.538;6.736;2022-10-16T03:04:50;3.53;;;1.95;;
59930;SDS011;45790;51.538;6.736;2022-10-16T03:07:16;3.53;;;1.92;;
59930;SDS011;45790;51.538;6.736;2022-10-16T03:09:41;4.35;;;1.92;;
59930;SDS011;45790;51.538;6.736;2022-10-16T03:12:07;5.18;;;2.00;;
59930;SDS011;45790;51.538;6.736;2022-10-16T03:14:32;4.30;;;1.90;;
59930;SDS011;45790;51.538;6.736;2022-10-16T03:16:58;4.60;;;2.00;;
59930;SDS011;45790;51.538;6.736;2022-10-16T03:19:23;4.93;;;1.90;;
59930;SDS011;45790;51.538;6.736;2022-10-16T03:21:49;4.20;;;2.03;;
59930;SDS011;45790;51.538;6.736;2022-10-16T03:24:14;4.13;;;2.13;;
59930;SDS011;45790;51.538;6.736;2022-10-16T03:26:39;3.72;;;1.90;;
59930;SDS011;45790;51.538;6.736;2022-10-16T03:29:05;4.03;;;1.90;;
59930;SDS011;45790;51.538;6.736;2022-10-16T03:31:31;3.85;;;1.70;;
59930;SDS011;45790;51.538;6.736;2022-10-16T03:33:56;3.67;;;1.70;;
59930;SDS011;45790;51.538;6.736;2022-10-16T03:36:22;3.97;;;1.95;;
59930;SDS011;45790;51.538;6.736;2022-10-16T03:38:47;5.05;;;1.60;;
59930;SDS011;45790;51.538;6.736;2022-10-16T03:41:12;3.58;;;1.55;;
59930;SDS011;45790;51.538;6.736;2022-10-16T03:43:38;3.63;;;1.63;;
59930;SDS011;45790;51.538;6.736;2022-10-16T03:46:03;3.97;;;1.85;;
59930;SDS011;45790;51.538;6.736;2022-10-16T03:48:28;4.18;;;1.98;;
59930;SDS011;45790;51.538;6.736;2022-10-16T03:50:54;3.88;;;1.73;;
59930;SDS011;45790;51.538;6.736;2022-10-16T03:53:19;4.95;;;2.10;;
59930;SDS011;45790;51.538;6.736;2022-10-16T03:55:45;5.68;;;1.70;;
59930;SDS011;45790;51.538;6.736;2022-10-16T03:58:10;4.28;;;1.67;;
59930;SDS011;45790;51.538;6.736;2022-10-16T04:00:42;4.28;;;2.03;;
59930;SDS011;45790;51.538;6.736;2022-10-16T04:03:08;4.82;;;1.83;;
59930;SDS011;45790;51.538;6.736;2022-10-16T04:05:34;3.28;;;1.80;;
59930;SDS011;45790;51.538;6.736;2022-10-16T04:07:59;3.75;;;1.77;;
59930;SDS011;45790;51.538;6.736;2022-10-16T04:10:24;5.18;;;1.98;;
59930;SDS011;45790;51.538;6.736;2022-10-16T04:12:50;4.60;;;1.58;;
59930;SDS011;45790;51.538;6.736;2022-10-16T04:15:15;5.22;;;1.70;;
59930;SDS011;45790;51.538;6.736;2022-10-16T04:17:40;2.72;;;1.42;;
59930;SDS011;45790;51.538;6.736;2022-10-16T04:20:06;5.13;;;1.90;;
59930;SDS011;45790;51.538;6.736;2022-10-16T04:22:31;3.53;;;1.70;;
59930;SDS011;45790;51.538;6.736;2022-10-16T04:24:57;3.58;;;1.77;;
59930;SDS011;45790;51.538;6.736;2022-10-16T04:27:22;4.40;;;1.52;;
59930;SDS011;45790;51.538;6.736;2022-10-16T04:29:47;4.53;;;1.80;;
59930;SDS011;45790;51.538;6.736;2022-10-16T04:32:13;3.60;;;1.65;;
59930;SDS011;45790;51.538;6.736;2022-10-16T04:34:39;3.97;;;1.70;;
59930;SDS011;45790;51.538;6.736;2022-10-16T04:37:04;4.40;;;1.90;;
59930;SDS011;45790;51.538;6.736;2022-10-16T04:39:30;3.72;;;1.63;;
59930;SDS011;45790;51.538;6.736;2022-10-16T04:41:55;5.65;;;1.50;;
59930;SDS011;45790;51.538;6.736;2022-10-16T04:44:20;6.10;;;1.63;;
59930;SDS011;45790;51.538;6.736;2022-10-16T04:46:46;4.05;;;1.80;;
59930;SDS011;45790;51.538;6.736;2022-10-16T04:49:11;4.10;;;1.70;;
59930;SDS011;45790;51.538;6.736;2022-10-16T04:51:36;4.18;;;1.70;;
59930;SDS011;45790;51.538;6.736;2022-10-16T04:54:01;4.45;;;1.70;;
59930;SDS011;45790;51.538;6.736;2022-10-16T04:56:27;4.63;;;1.95;;
59930;SDS011;45790;51.538;6.736;2022-10-16T04:58:52;3.33;;;1.67;;
59930;SDS011;45790;51.538;6.736;2022-10-16T05:01:18;3.28;;;1.50;;
59930;SDS011;45790;51.538;6.736;2022-10-16T05:03:43;3.83;;;1.70;;
59930;SDS011;45790;51.538;6.736;2022-10-16T05:06:08;4.38;;;1.60;;
59930;SDS011;45790;51.538;6.736;2022-10-16T05:08:34;4.20;;;1.90;;
59930;SDS011;45790;51.538;6.736;2022-10-16T05:10:59;3.65;;;1.83;;
59930;SDS011;45790;51.538;6.736;2022-10-16T05:13:25;5.40;;;2.00;;
59930;SDS011;45790;51.538;6.736;2022-10-16T05:15:50;5.18;;;1.75;;
59930;SDS011;45790;51.538;6.736;2022-10-16T05:18:16;4.97;;;1.80;;
59930;SDS011;45790;51.538;6.736;2022-10-16T05:20:41;5.93;;;1.90;;
59930;SDS011;45790;51.538;6.736;2022-10-16T05:23:07;4.93;;;2.00;;
59930;SDS011;45790;51.538;6.736;2022-10-16T05:25:35;6.20;;;2.05;;
59930;SDS011;45790;51.538;6.736;2022-10-16T05:28:03;5.93;;;2.30;;
59930;SDS011;45790;51.538;6.736;2022-10-16T05:30:28;4.40;;;2.08;;
59930;SDS011;45790;51.538;6.736;2022-10-16T05:32:54;4.82;;;2.00;;
59930;SDS011;45790;51.538;6.736;2022-10-16T05:35:19;4.85;;;2.25;;
59930;SDS011;45790;51.538;6.736;2022-10-16T05:37:45;4.18;;;2.00;;
59930;SDS011;45790;51.538;6.736;2022-10-16T05:40:11;4.38;;;2.15;;
59930;SDS011;45790;51.538;6.736;2022-10-16T05:42:37;5.50;;;2.33;;
59930;SDS011;45790;51.538;6.736;2022-10-16T05:45:04;4.78;;;1.85;;
59930;SDS011;45790;51.538;6.736;2022-10-16T05:47:30;5.38;;;2.38;;
59930;SDS011;45790;51.538;6.736;2022-10-16T05:49:55;3.90;;;1.88;;
59930;SDS011;45790;51.538;6.736;2022-10-16T05:52:21;4.30;;;2.08;;
59930;SDS011;45790;51.538;6.736;2022-10-16T05:54:46;3.85;;;1.80;;
59930;SDS011;45790;51.538;6.736;2022-10-16T05:57:11;3.97;;;1.65;;
59930;SDS011;45790;51.538;6.736;2022-10-16T05:59:37;4.55;;;1.77;;
59930;SDS011;45790;51.538;6.736;2022-10-16T06:02:02;3.13;;;1.70;;
59930;SDS011;45790;51.538;6.736;2022-10-16T06:04:28;3.70;;;1.80;;
59930;SDS011;45790;51.538;6.736;2022-10-16T06:06:59;4.95;;;1.92;;
59930;SDS011;45790;51.538;6.736;2022-10-16T06:09:27;4.22;;;1.70;;
59930;SDS011;45790;51.538;6.736;2022-10-16T06:11:53;3.90;;;1.67;;
59930;SDS011;45790;51.538;6.736;2022-10-16T06:14:18;3.65;;;1.52;;
59930;SDS011;45790;51.538;6.736;2022-10-16T06:16:43;3.25;;;1.60;;
59930;SDS011;45790;51.538;6.736;2022-10-16T06:19:09;4.63;;;1.67;;
59930;SDS011;45790;51.538;6.736;2022-10-16T06:21:34;4.18;;;1.73;;
59930;SDS011;45790;51.538;6.736;2022-10-16T06:23:59;3.13;;;1.50;;
59930;SDS011;45790;51.538;6.736;2022-10-16T06:26:26;4.15;;;1.52;;
59930;SDS011;45790;51.538;6.736;2022-10-16T06:28:54;4.50;;;1.40;;
59930;SDS011;45790;51.538;6.736;2022-10-16T06:31:20;4.93;;;1.50;;
59930;SDS011;45790;51.538;6.736;2022-10-16T06:33:49;5.10;;;1.45;;
59930;SDS011;45790;51.538;6.736;2022-10-16T06:36:16;3.53;;;1.40;;
59930;SDS011;45790;51.538;6.736;2022-10-16T06:38:42;3.55;;;1.60;;
59930;SDS011;45790;51.538;6.736;2022-10-16T06:41:09;3.28;;;1.50;;
59930;SDS011;45790;51.538;6.736;2022-10-16T06:43:36;4.93;;;1.58;;
59930;SDS011;45790;51.538;6.736;2022-10-16T06:46:02;4.25;;;1.70;;
59930;SDS011;45790;51.538;6.736;2022-10-16T06:48:29;3.38;;;1.60;;
59930;SDS011;45790;51.538;6.736;2022-10-16T06:51:16;3.03;;;1.27;;
59930;SDS011;45790;51.538;6.736;2022-10-16T06:53:42;3.15;;;1.40;;
59930;SDS011;45790;51.538;6.736;2022-10-16T06:56:13;3.17;;;1.40;;
59930;SDS011;45790;51.538;6.736;2022-10-16T06:58:40;3.65;;;1.40;;
59930;SDS011;45790;51.538;6.736;2022-10-16T07:01:07;2.88;;;1.42;;
59930;SDS011;45790;51.538;6.736;2022-10-16T07:03:33;3.53;;;1.60;;
59930;SDS011;45790;51.538;6.736;2022-10-16T07:06:02;2.95;;;1.20;;
59930;SDS011;45790;51.538;6.736;2022-10-16T07:08:30;3.15;;;1.50;;
59930;SDS011;45790;51.538;6.736;2022-10-16T07:11:03;4.55;;;1.40;;
59930;SDS011;45790;51.538;6.736;2022-10-16T07:13:33;2.17;;;1.10;;
59930;SDS011;45790;51.538;6.736;2022-10-16T07:16:10;2.58;;;1.30;;
59930;SDS011;45790;51.538;6.736;2022-10-16T07:18:36;2.28;;;1.17;;
59930;SDS011;45790;51.538;6.736;2022-10-16T07:21:07;1.92;;;1.17;;
59930;SDS011;45790;51.538;6.736;2022-10-16T07:23:35;3.38;;;1.30;;
59930;SDS011;45790;51.538;6.736;2022-10-16T07:26:00;2.22;;;1.10;;
59930;SDS011;45790;51.538;6.736;2022-10-16T07:28:26;3.25;;;1.35;;
59930;SDS011;45790;51.538;6.736;2022-10-16T07:30:51;2.47;;;1.27;;
59930;SDS011;45790;51.538;6.736;2022-10-16T07:33:17;2.45;;;1.27;;
59930;SDS011;45790;51.538;6.736;2022-10-16T07:35:49;1.75;;;1.10;;
59930;SDS011;45790;51.538;6.736;2022-10-16T07:38:15;2.55;;;1.10;;
59930;SDS011;45790;51.538;6.736;2022-10-16T07:40:40;3.28;;;1.25;;
59930;SDS011;45790;51.538;6.736;2022-10-16T07:43:05;2.28;;;1.30;;
59930;SDS011;45790;51.538;6.736;2022-10-16T07:45:31;2.42;;;1.20;;
59930;SDS011;45790;51.538;6.736;2022-10-16T07:47:56;2.97;;;1.15;;
59930;SDS011;45790;51.538;6.736;2022-10-16T07:50:21;2.75;;;1.48;;
59930;SDS011;45790;51.538;6.736;2022-10-16T07:52:47;2.70;;;1.15;;
59930;SDS011;45790;51.538;6.736;2022-10-16T07:55:12;2.92;;;1.20;;
59930;SDS011;45790;51.538;6.736;2022-10-16T07:57:38;2.92;;;1.05;;
59930;SDS011;45790;51.538;6.736;2022-10-16T08:00:03;1.80;;;1.05;;
59930;SDS011;45790;51.538;6.736;2022-10-16T08:02:29;2.50;;;1.20;;
59930;SDS011;45790;51.538;6.736;2022-10-16T08:04:55;1.95;;;1.00;;
59930;SDS011;45790;51.538;6.736;2022-10-16T08:07:20;1.70;;;0.90;;
59930;SDS011;45790;51.538;6.736;2022-10-16T08:09:48;2.15;;;0.93;;
59930;SDS011;45790;51.538;6.736;2022-10-16T08:12:14;2.03;;;1.08;;
59930;SDS011;45790;51.538;6.736;2022-10-16T08:14:40;2.88;;;1.20;;
59930;SDS011;45790;51.538;6.736;2022-10-16T08:17:05;1.80;;;1.08;;
59930;SDS011;45790;51.538;6.736;2022-10-16T08:19:30;2.70;;;1.30;;
59930;SDS011;45790;51.538;6.736;2022-10-16T08:21:59;3.00;;;1.10;;
59930;SDS011;45790;51.538;6.736;2022-10-16T08:24:24;3.10;;;1.00;;
59930;SDS011;45790;51.538;6.736;2022-10-16T08:26:49;2.22;;;1.17;;
59930;SDS011;45790;51.538;6.736;2022-10-16T08:29:15;1.60;;;1.00;;
59930;SDS011;45790;51.538;6.736;2022-10-16T08:31:40;2.45;;;0.93;;
59930;SDS011;45790;51.538;6.736;2022-10-16T08:34:06;2.65;;;0.90;;
59930;SDS011;45790;51.538;6.736;2022-10-16T08:36:31;1.58;;;0.90;;
59930;SDS011;45790;51.538;6.736;2022-10-16T08:38:57;2.55;;;1.35;;
59930;SDS011;45790;51.538;6.736;2022-10-16T08:44:36;1.73;;;1.08;;
59930;SDS011;45790;51.538;6.736;2022-10-16T08:47:25;2.08;;;0.90;;
59930;SDS011;45790;51.538;6.736;2022-10-16T08:49:56;2.40;;;0.90;;
59930;SDS011;45790;51.538;6.736;2022-10-16T08:52:23;2.40;;;0.93;;
59930;SDS011;45790;51.538;6.736;2022-10-16T08:54:51;1.83;;;1.00;;
59930;SDS011;45790;51.538;6.736;2022-10-16T08:57:20;1.98;;;0.82;;
59930;SDS011;45790;51.538;6.736;2022-10-16T08:59:46;2.35;;;1.02;;
59930;SDS011;45790;51.538;6.736;2022-10-16T09:02:21;2.33;;;0.93;;
59930;SDS011;45790;51.538;6.736;2022-10-16T09:08:01;2.13;;;1.10;;
59930;SDS011;45790;51.538;6.736;2022-10-16T09:10:38;2.00;;;0.75;;
59930;SDS011;45790;51.538;6.736;2022-10-16T09:13:18;2.17;;;1.00;;
59930;SDS011;45790;51.538;6.736;2022-10-16T09:21:18;2.88;;;1.02;;
59930;SDS011;45790;51.538;6.736;2022-10-16T09:23:46;1.70;;;0.80;;
59930;SDS011;45790;51.538;6.736;2022-10-16T09:26:13;2.33;;;1.00;;
59930;SDS011;45790;51.538;6.736;2022-10-16T09:28:39;1.90;;;0.90;;
59930;SDS011;45790;51.538;6.736;2022-10-16T09:31:04;1.60;;;0.73;;
59930;SDS011;45790;51.538;6.736;2022-10-16T09:33:34;2.45;;;0.90;;
59930;SDS011;45790;51.538;6.736;2022-10-16T09:36:02;2.15;;;0.80;;
59930;SDS011;45790;51.538;6.736;2022-10-16T09:38:32;2.55;;;1.00;;
59930;SDS011;45790;51.538;6.736;2022-10-16T09:41:01;2.63;;;1.00;;
59930;SDS011;45790;51.538;6.736;2022-10-16T09:43:35;3.65;;;1.20;;
59930;SDS011;45790;51.538;6.736;2022-10-16T09:46:07;4.90;;;1.10;;
59930;SDS011;45790;51.538;6.736;2022-10-16T09:48:37;1.35;;;0.70;;
59930;SDS011;45790;51.538;6.736;2022-10-16T09:51:06;1.20;;;0.80;;
59930;SDS011;45790;51.538;6.736;2022-10-16T09:53:43;3.17;;;0.98;;
59930;SDS011;45790;51.538;6.736;2022-10-16T09:56:31;3.17;;;0.98;;
59930;SDS011;45790;51.538;6.736;2022-10-16T10:01:47;2.33;;;0.85;;
59930;SDS011;45790;51.538;6.736;2022-10-16T10:04:17;1.25;;;0.70;;
59930;SDS011;45790;51.538;6.736;2022-10-16T10:09:20;1.98;;;1.00;;
59930;SDS011;45790;51.538;6.736;2022-10-16T10:14:51;2.25;;;1.00;;
59930;SDS011;45790;51.538;6.736;2022-10-16T10:17:18;1.50;;;0.90;;
59930;SDS011;45790;51.538;6.736;2022-10-16T10:22:16;1.13;;;0.70;;
59930;SDS011;45790;51.538;6.736;2022-10-16T10:24:44;1.77;;;0.70;;
59930;SDS011;45790;51.538;6.736;2022-10-16T10:27:13;2.33;;;0.85;;
59930;SDS011;45790;51.538;6.736;2022-10-16T10:29:50;2.47;;;0.98;;
59930;SDS011;45790;51.538;6.736;2022-10-16T10:32:52;1.52;;;0.80;;
59930;SDS011;45790;51.538;6.736;2022-10-16T10:35:25;2.40;;;0.85;;
59930;SDS011;45790;51.538;6.736;2022-10-16T10:38:04;1.83;;;0.70;;
59930;SDS011;45790;51.538;6.736;2022-10-16T10:43:30;2.67;;;0.90;;
59930;SDS011;45790;51.538;6.736;2022-10-16T10:46:03;1.85;;;0.88;;
59930;SDS011;45790;51.538;6.736;2022-10-16T10:48:38;1.95;;;0.80;;
59930;SDS011;45790;51.538;6.736;2022-10-16T10:51:22;1.98;;;0.80;;
59930;SDS011;45790;51.538;6.736;2022-10-16T10:53:58;1.95;;;0.77;;
59930;SDS011;45790;51.538;6.736;2022-10-16T10:57:02;0.93;;;0.60;;
59930;SDS011;45790;51.538;6.736;2022-10-16T11:02:18;0.50;;;0.50;;
59930;SDS011;45790;51.538;6.736;2022-10-16T11:07:44;1.75;;;0.70;;
59930;SDS011;45790;51.538;6.736;2022-10-16T11:10:18;3.10;;;1.00;;
59930;SDS011;45790;51.538;6.736;2022-10-16T11:15:36;2.90;;;0.98;;
59930;SDS011;45790;51.538;6.736;2022-10-16T11:18:06;1.75;;;0.80;;
59930;SDS011;45790;51.538;6.736;2022-10-16T11:20:56;2.65;;;0.60;;
59930;SDS011;45790;51.538;6.736;2022-10-16T11:23:30;1.00;;;0.60;;
59930;SDS011;45790;51.538;6.736;2022-10-16T11:26:01;1.25;;;0.70;;
59930;SDS011;45790;51.538;6.736;2022-10-16T11:28:32;1.63;;;0.70;;
59930;SDS011;45790;51.538;6.736;2022-10-16T11:31:22;1.50;;;0.70;;
59930;SDS011;45790;51.538;6.736;2022-10-16T11:33:59;1.10;;;0.63;;
59930;SDS011;45790;51.538;6.736;2022-10-16T11:39:26;3.20;;;0.98;;
59930;SDS011;45790;51.538;6.736;2022-10-16T11:41:59;3.38;;;0.75;;
59930;SDS011;45790;51.538;6.736;2022-10-16T11:49:53;1.38;;;0.52;;
59930;SDS011;45790;51.538;6.736;2022-10-16T11:52:28;1.63;;;0.65;;
59930;SDS011;45790;51.538;6.736;2022-10-16T11:55:13;1.20;;;0.50;;
59930;SDS011;45790;51.538;6.736;2022-10-16T11:57:45;1.73;;;0.70;;
59930;SDS011;45790;51.538;6.736;2022-10-16T12:00:23;2.38;;;0.77;;
59930;SDS011;45790;51.538;6.736;2022-10-16T12:03:03;2.00;;;0.73;;
59930;SDS011;45790;51.538;6.736;2022-10-16T12:08:17;1.27;;;0.60;;
59930;SDS011;45790;51.538;6.736;2022-10-16T12:10:43;0.73;;;0.60;;
59930;SDS011;45790;51.538;6.736;2022-10-16T12:18:36;1.05;;;0.60;;
59930;SDS011;45790;51.538;6.736;2022-10-16T12:21:02;2.15;;;0.55;;
59930;SDS011;45790;51.538;6.736;2022-10-16T12:23:50;2.15;;;0.90;;
59930;SDS011;45790;51.538;6.736;2022-10-16T12:26:26;2.92;;;0.70;;
59930;SDS011;45790;51.538;6.736;2022-10-16T12:28:53;1.50;;;0.60;;
59930;SDS011;45790;51.538;6.736;2022-10-16T12:31:40;1.40;;;0.60;;
59930;SDS011;45790;51.538;6.736;2022-10-16T12:37:09;1.13;;;0.50;;
59930;SDS011;45790;51.538;6.736;2022-10-16T12:39:40;1.02;;;0.60;;
59930;SDS011;45790;51.538;6.736;2022-10-16T12:42:19;0.47;;;0.47;;
59930;SDS011;45790;51.538;6.736;2022-10-16T12:44:44;1.75;;;0.60;;
59930;SDS011;45790;51.538;6.736;2022-10-16T12:47:19;2.38;;;0.70;;
59930;SDS011;45790;51.538;6.736;2022-10-16T12:49:49;1.42;;;0.60;;
59930;SDS011;45790;51.538;6.736;2022-10-16T12:54:58;1.98;;;0.95;;
59930;SDS011;45790;51.538;6.736;2022-10-16T13:02:49;2.38;;;0.60;;
59930;SDS011;45790;51.538;6.736;2022-10-16T13:10:41;0.68;;;0.52;;
59930;SDS011;45790;51.538;6.736;2022-10-16T13:18:55;2.30;;;0.80;;
59930;SDS011;45790;51.538;6.736;2022-10-16T13:26:44;4.63;;;0.68;;
59930;SDS011;45790;51.538;6.736;2022-10-16T13:29:14;2.58;;;0.75;;
59930;SDS011;45790;51.538;6.736;2022-10-16T13:31:40;3.08;;;0.80;;
59930;SDS011;45790;51.538;6.736;2022-10-16T13:34:11;1.23;;;0.73;;
59930;SDS011;45790;51.538;6.736;2022-10-16T13:36:45;1.27;;;0.40;;
59930;SDS011;45790;51.538;6.736;2022-10-16T13:39:22;1.07;;;0.60;;
59930;SDS011;45790;51.538;6.736;2022-10-16T13:42:05;2.03;;;0.70;;
59930;SDS011;45790;51.538;6.736;2022-10-16T13:47:03;1.17;;;0.50;;
59930;SDS011;45790;51.538;6.736;2022-10-16T13:49:29;0.93;;;0.60;;
59930;SDS011;45790;51.538;6.736;2022-10-16T13:51:55;2.35;;;0.80;;
59930;SDS011;45790;51.538;6.736;2022-10-16T13:54:21;1.90;;;0.60;;
59930;SDS011;45790;51.538;6.736;2022-10-16T13:56:47;2.92;;;0.85;;
59930;SDS011;45790;51.538;6.736;2022-10-16T14:02:21;1.45;;;0.50;;
59930;SDS011;45790;51.538;6.736;2022-10-16T14:04:51;3.17;;;0.82;;
59930;SDS011;45790;51.538;6.736;2022-10-16T14:07:29;1.20;;;0.60;;
59930;SDS011;45790;51.538;6.736;2022-10-16T14:09:57;1.27;;;0.50;;
59930;SDS011;45790;51.538;6.736;2022-10-16T14:12:25;1.40;;;0.55;;
59930;SDS011;45790;51.538;6.736;2022-10-16T14:14:53;3.72;;;0.65;;
59930;SDS011;45790;51.538;6.736;2022-10-16T14:17:23;1.45;;;0.52;;
59930;SDS011;45790;51.538;6.736;2022-10-16T14:19:51;1.10;;;0.55;;
59930;SDS011;45790;51.538;6.736;2022-10-16T14:22:40;1.88;;;0.60;;
59930;SDS011;45790;51.538;6.736;2022-10-16T14:27:44;1.77;;;0.70;;
59930;SDS011;45790;51.538;6.736;2022-10-16T14:32:41;1.27;;;0.60;;
59930;SDS011;45790;51.538;6.736;2022-10-16T14:38:14;1.27;;;0.60;;
59930;SDS011;45790;51.538;6.736;2022-10-16T14:40:46;0.95;;;0.60;;
59930;SDS011;45790;51.538;6.736;2022-10-16T14:46:01;2.70;;;0.60;;
59930;SDS011;45790;51.538;6.736;2022-10-16T14:48:28;0.80;;;0.55;;
59930;SDS011;45790;51.538;6.736;2022-10-16T14:50:53;3.30;;;0.60;;
59930;SDS011;45790;51.538;6.736;2022-10-16T14:53:19;1.48;;;0.50;;
59930;SDS011;45790;51.538;6.736;2022-10-16T14:55:44;1.80;;;0.50;;
59930;SDS011;45790;51.538;6.736;2022-10-16T14:58:17;1.77;;;0.63;;
59930;SDS011;45790;51.538;6.736;2022-10-16T15:00:44;1.58;;;0.57;;
59930;SDS011;45790;51.538;6.736;2022-10-16T15:03:10;1.67;;;0.68;;
59930;SDS011;45790;51.538;6.736;2022-10-16T15:05:35;1.10;;;0.50;;
59930;SDS011;45790;51.538;6.736;2022-10-16T15:08:01;1.23;;;0.60;;
59930;SDS011;45790;51.538;6.736;2022-10-16T15:10:27;1.08;;;0.68;;
59930;SDS011;45790;51.538;6.736;2022-10-16T15:12:53;1.27;;;0.60;;
59930;SDS011;45790;51.538;6.736;2022-10-16T15:17:46;1.33;;;0.60;;
59930;SDS011;45790;51.538;6.736;2022-10-16T15:20:11;1.67;;;0.60;;
59930;SDS011;45790;51.538;6.736;2022-10-16T15:22:36;1.42;;;0.65;;
59930;SDS011;45790;51.538;6.736;2022-10-16T15:25:04;2.10;;;0.75;;
59930;SDS011;45790;51.538;6.736;2022-10-16T15:27:50;1.17;;;0.60;;
59930;SDS011;45790;51.538;6.736;2022-10-16T15:30:15;2.90;;;0.63;;
59930;SDS011;45790;51.538;6.736;2022-10-16T15:32:40;2.20;;;0.65;;
59930;SDS011;45790;51.538;6.736;2022-10-16T15:35:08;1.40;;;0.60;;
59930;SDS011;45790;51.538;6.736;2022-10-16T15:37:33;2.03;;;0.70;;
59930;SDS011;45790;51.538;6.736;2022-10-16T15:39:59;2.15;;;1.00;;
59930;SDS011;45790;51.538;6.736;2022-10-16T15:42:24;3.50;;;0.70;;
59930;SDS011;45790;51.538;6.736;2022-10-16T15:44:49;2.42;;;0.82;;
59930;SDS011;45790;51.538;6.736;2022-10-16T15:47:15;2.50;;;0.60;;
59930;SDS011;45790;51.538;6.736;2022-10-16T15:49:40;1.52;;;0.60;;
59930;SDS011;45790;51.538;6.736;2022-10-16T15:52:05;3.50;;;0.60;;
59930;SDS011;45790;51.538;6.736;2022-10-16T15:54:31;2.95;;;0.80;;
59930;SDS011;45790;51.538;6.736;2022-10-16T15:56:56;1.27;;;0.70;;
59930;SDS011;45790;51.538;6.736;2022-10-16T15:59:21;1.75;;;0.63;;
59930;SDS011;45790;51.538;6.736;2022-10-16T16:01:47;3.33;;;0.70;;
59930;SDS011;45790;51.538;6.736;2022-10-16T16:04:12;2.50;;;1.05;;
59930;SDS011;45790;51.538;6.736;2022-10-16T16:06:37;1.80;;;0.77;;
59930;SDS011;45790;51.538;6.736;2022-10-16T16:09:04;3.60;;;0.77;;
59930;SDS011;45790;51.538;6.736;2022-10-16T16:11:30;2.75;;;0.77;;
59930;SDS011;45790;51.538;6.736;2022-10-16T16:13:57;1.08;;;0.60;;
59930;SDS011;45790;51.538;6.736;2022-10-16T16:16:22;2.40;;;0.75;;
59930;SDS011;45790;51.538;6.736;2022-10-16T16:18:47;1.80;;;0.80;;
59930;SDS011;45790;51.538;6.736;2022-10-16T16:21:14;0.90;;;0.60;;
59930;SDS011;45790;51.538;6.736;2022-10-16T16:23:39;2.08;;;0.90;;
59930;SDS011;45790;51.538;6.736;2022-10-16T16:26:06;1.90;;;0.90;;
59930;SDS011;45790;51.538;6.736;2022-10-16T16:28:32;1.67;;;0.70;;
59930;SDS011;45790;51.538;6.736;2022-10-16T16:30:57;1.55;;;0.70;;
59930;SDS011;45790;51.538;6.736;2022-10-16T16:33:23;2.50;;;0.65;;
59930;SDS011;45790;51.538;6.736;2022-10-16T16:35:48;1.95;;;0.88;;
59930;SDS011;45790;51.538;6.736;2022-10-16T16:38:14;2.10;;;0.88;;
59930;SDS011;45790;51.538;6.736;2022-10-16T16:40:39;1.90;;;0.80;;
59930;SDS011;45790;51.538;6.736;2022-10-16T16:43:04;2.28;;;0.80;;
59930;SDS011;45790;51.538;6.736;2022-10-16T16:45:30;2.05;;;0.93;;
59930;SDS011;45790;51.538;6.736;2022-10-16T16:47:55;2.25;;;0.90;;
59930;SDS011;45790;51.538;6.736;2022-10-16T16:50:20;3.03;;;1.10;;
59930;SDS011;45790;51.538;6.736;2022-10-16T16:52:46;3.50;;;1.02;;
59930;SDS011;45790;51.538;6.736;2022-10-16T16:55:11;3.20;;;1.20;;
59930;SDS011;45790;51.538;6.736;2022-10-16T16:57:36;2.70;;;1.10;;